Time,TemperatureF,DewpointF,PressureIn,WindDirection,WindDirectionDegrees,WindSpeedMPH,WindSpeedGustMPH,Humidity,HourlyPrecipIn,Conditions,Clouds,dailyrainin,SoftwareType,DateUTC
2013-09-03 00:00:00,66.3,66.0,29.93,West,270,0.0,0.0,99,0.00,,---,0.00,VWS V14.00,2013-09-03 04:00:00,
2013-09-03 00:01:00,66.3,66.0,29.93,West,270,0.0,0.0,99,0.00,,---,0.00,VWS V14.00,2013-09-03 04:01:00,
2013-09-03 00:02:00,66.3,66.0,29.93,West,270,0.0,0.0,99,0.00,,---,0.00,VWS V14.00,2013-09-03 04:02:00,
2013-09-03 00:07:00,66.3,66.0,29.93,West,270,0.0,0.0,99,0.00,,---,0.00,VWS V14.00,2013-09-03 04:07:00,
2013-09-03 00:12:00,66.0,65.7,29.94,West,270,0.0,0.0,99,0.00,,---,0.00,VWS V14.00,2013-09-03 04:12:00,
2013-09-03 00:17:00,66.0,65.7,29.93,West,270,0.0,0.0,99,0.00,,---,0.00,VWS V14.00,2013-09-03 04:17:00,
2013-09-03 00:22:00,66.0,65.7,29.94,West,270,0.0,0.0,99,0.00,,---,0.00,VWS V14.00,2013-09-03 04:22:00,
2013-09-03 00:27:00,66.0,65.7,29.94,West,270,0.0,0.0,99,0.00,,---,0.00,VWS V14.00,2013-09-03 04:27:00,
2013-09-03 00:32:00,65.8,65.5,29.94,West,270,0.0,0.0,99,0.00,,---,0.00,VWS V14.00,2013-09-03 04:32:00,
2013-09-03 00:37:00,65.8,65.5,29.93,West,270,0.0,0.0,99,0.00,,---,0.00,VWS V14.00,2013-09-03 04:37:00,
2013-09-03 00:42:00,65.6,65.3,29.93,West,270,0.0,0.0,99,0.00,,---,0.00,VWS V14.00,2013-09-03 04:42:00,
2013-09-03 00:47:00,65.4,65.4,29.94,West,270,0.0,0.0,100,0.00,,---,0.00,VWS V14.00,2013-09-03 04:47:00,
2013-09-03 00:52:00,65.4,65.4,29.94,West,270,0.0,0.0,100,0.00,,---,0.00,VWS V14.00,2013-09-03 04:52:00,
2013-09-03 00:57:00,65.3,65.3,29.93,West,270,0.0,0.0,100,0.00,,---,0.00,VWS V14.00,2013-09-03 04:57:00,
2013-09-03 01:02:00,65.3,65.3,29.93,West,270,0.0,0.0,100,0.00,,---,0.00,VWS V14.00,2013-09-03 05:02:00,
2013-09-03 01:07:00,65.3,65.3,29.93,West,270,0.0,0.0,100,0.00,,---,0.00,VWS V14.00,2013-09-03 05:07:00,
2013-09-03 01:12:00,65.1,65.1,29.92,West,270,0.0,0.0,100,0.00,,---,0.00,VWS V14.00,2013-09-03 05:12:00,
2013-09-03 01:17:00,65.1,65.1,29.92,West,270,0.0,0.0,100,0.00,,---,0.00,VWS V14.00,2013-09-03 05:17:00,
2013-09-03 01:22:00,64.9,64.9,29.92,West,270,0.0,0.0,100,0.00,,---,0.00,VWS V14.00,2013-09-03 05:22:00,
2013-09-03 01:27:00,64.9,64.9,29.92,West,270,0.0,0.0,100,0.00,,---,0.00,VWS V14.00,2013-09-03 05:27:00,
2013-09-03 01:33:00,64.9,64.9,29.92,West,270,0.0,0.0,100,0.00,,---,0.00,VWS V14.00,2013-09-03 05:33:00,
2013-09-03 01:38:00,64.7,64.7,29.92,West,270,0.0,0.0,100,0.00,,---,0.00,VWS V14.00,2013-09-03 05:38:00,
2013-09-03 01:43:00,64.7,64.7,29.92,West,270,0.0,0.0,100,0.00,,---,0.00,VWS V14.00,2013-09-03 05:43:00,
2013-09-03 01:48:00,64.5,64.5,29.91,West,270,0.0,0.0,100,0.00,,---,0.00,VWS V14.00,2013-09-03 05:48:00,
2013-09-03 01:53:00,64.5,64.5,29.91,West,270,0.0,0.0,100,0.00,,---,0.00,VWS V14.00,2013-09-03 05:53:00,
2013-09-03 01:58:00,64.5,64.5,29.91,West,270,0.0,0.0,100,0.00,,---,0.00,VWS V14.00,2013-09-03 05:58:00,
2013-09-03 02:03:00,64.4,64.4,29.92,West,270,0.0,0.0,100,0.00,,---,0.00,VWS V14.00,2013-09-03 06:03:00,
2013-09-03 02:08:00,64.4,64.4,29.92,West,270,0.0,0.0,100,0.00,,---,0.00,VWS V14.00,2013-09-03 06:08:00,
2013-09-03 02:13:00,64.2,64.2,29.92,West,270,0.0,0.0,100,0.00,,---,0.00,VWS V14.00,2013-09-03 06:13:00,
2013-09-03 02:18:00,64.2,64.2,29.92,West,270,0.0,0.0,100,0.00,,---,0.00,VWS V14.00,2013-09-03 06:18:00,
2013-09-03 02:23:00,64.4,64.4,29.92,West,270,0.0,0.0,100,0.00,,---,0.00,VWS V14.00,2013-09-03 06:23:00,
2013-09-03 02:28:00,64.4,64.4,29.92,West,270,0.0,0.0,100,0.00,,---,0.00,VWS V14.00,2013-09-03 06:28:00,
2013-09-03 02:33:00,64.4,64.4,29.92,West,270,0.0,0.0,100,0.00,,---,0.00,VWS V14.00,2013-09-03 06:33:00,
2013-09-03 02:38:00,64.2,64.2,29.92,West,270,0.0,0.0,100,0.00,,---,0.00,VWS V14.00,2013-09-03 06:38:00,
2013-09-03 02:43:00,64.2,64.2,29.92,West,270,0.0,0.0,100,0.00,,---,0.00,VWS V14.00,2013-09-03 06:43:00,
2013-09-03 02:48:00,64.2,64.2,29.92,West,270,0.0,0.0,100,0.00,,---,0.00,VWS V14.00,2013-09-03 06:48:00,
2013-09-03 02:53:00,64.2,64.2,29.92,West,270,0.0,0.0,100,0.00,,---,0.00,VWS V14.00,2013-09-03 06:53:00,
2013-09-03 02:58:00,64.2,64.2,29.91,West,270,0.0,0.0,100,0.00,,---,0.00,VWS V14.00,2013-09-03 06:58:00,
2013-09-03 03:03:00,64.0,64.0,29.91,West,270,0.0,0.0,100,0.00,,---,0.00,VWS V14.00,2013-09-03 07:03:00,
2013-09-03 03:08:00,64.0,64.0,29.90,West,270,0.0,0.0,100,0.00,,---,0.00,VWS V14.00,2013-09-03 07:08:00,
2013-09-03 03:14:00,64.0,64.0,29.91,West,270,0.0,0.0,100,0.00,,---,0.00,VWS V14.00,2013-09-03 07:14:00,
2013-09-03 03:19:00,64.0,64.0,29.91,West,270,0.0,0.0,100,0.00,,---,0.00,VWS V14.00,2013-09-03 07:19:00,
2013-09-03 03:24:00,64.0,64.0,29.91,West,270,0.0,0.0,100,0.00,,---,0.00,VWS V14.00,2013-09-03 07:24:00,
2013-09-03 03:29:00,64.0,64.0,29.91,West,270,0.0,0.0,100,0.00,,---,0.00,VWS V14.00,2013-09-03 07:29:00,
2013-09-03 03:34:00,63.8,63.8,29.91,West,270,0.0,0.0,100,0.00,,---,0.00,VWS V14.00,2013-09-03 07:34:00,
2013-09-03 03:39:00,63.6,63.6,29.92,West,270,0.0,0.0,100,0.00,,---,0.00,VWS V14.00,2013-09-03 07:39:00,
2013-09-03 03:44:00,63.6,63.6,29.92,West,270,0.0,0.0,100,0.00,,---,0.00,VWS V14.00,2013-09-03 07:44:00,
2013-09-03 03:49:00,63.6,63.6,29.92,West,270,0.0,0.0,100,0.00,,---,0.00,VWS V14.00,2013-09-03 07:49:00,
2013-09-03 03:54:00,63.6,63.6,29.92,West,270,0.0,0.0,100,0.00,,---,0.00,VWS V14.00,2013-09-03 07:54:00,
2013-09-03 03:59:00,63.6,63.6,29.92,West,270,0.0,0.0,100,0.00,,---,0.00,VWS V14.00,2013-09-03 07:59:00,
2013-09-03 04:04:00,63.6,63.6,29.93,West,270,0.0,0.0,100,0.00,,---,0.00,VWS V14.00,2013-09-03 08:04:00,
2013-09-03 04:09:00,63.6,63.6,29.93,West,270,0.0,0.0,100,0.00,,---,0.00,VWS V14.00,2013-09-03 08:09:00,
2013-09-03 04:14:00,64.0,64.0,29.93,West,270,0.0,0.0,100,0.00,,---,0.00,VWS V14.00,2013-09-03 08:14:00,
2013-09-03 04:19:00,64.2,64.2,29.93,West,270,0.0,0.0,100,0.00,,---,0.00,VWS V14.00,2013-09-03 08:19:00,
2013-09-03 04:24:00,64.2,64.2,29.93,West,270,0.0,0.0,100,0.00,,---,0.00,VWS V14.00,2013-09-03 08:24:00,
2013-09-03 04:29:00,64.5,64.5,29.93,West,270,0.0,0.0,100,0.00,,---,0.00,VWS V14.00,2013-09-03 08:29:00,
2013-09-03 04:34:00,64.7,64.7,29.93,West,270,0.0,0.0,100,0.00,,---,0.00,VWS V14.00,2013-09-03 08:34:00,
2013-09-03 04:39:00,64.9,64.9,29.93,West,270,0.0,0.0,100,0.00,,---,0.00,VWS V14.00,2013-09-03 08:39:00,
2013-09-03 04:44:00,65.1,65.1,29.93,West,270,0.0,0.0,100,0.00,,---,0.00,VWS V14.00,2013-09-03 08:44:00,
2013-09-03 04:49:00,65.1,65.1,29.93,West,270,0.0,0.0,100,0.00,,---,0.00,VWS V14.00,2013-09-03 08:49:00,
2013-09-03 04:54:00,65.3,65.3,29.92,West,270,0.0,0.0,100,0.00,,---,0.00,VWS V14.00,2013-09-03 08:54:00,
2013-09-03 04:59:00,65.4,65.4,29.92,West,270,0.0,0.0,100,0.00,,---,0.00,VWS V14.00,2013-09-03 08:59:00,
2013-09-03 05:04:00,65.6,65.6,29.92,West,270,0.0,0.0,100,0.00,,---,0.00,VWS V14.00,2013-09-03 09:04:00,
2013-09-03 05:09:00,65.8,65.8,29.93,West,270,0.0,0.0,100,0.06,,---,0.06,VWS V14.00,2013-09-03 09:09:00,
2013-09-03 05:14:00,65.8,65.8,29.93,West,270,0.0,0.0,100,0.10,,---,0.10,VWS V14.00,2013-09-03 09:14:00,
2013-09-03 05:19:00,65.6,65.6,29.93,West,270,0.0,0.0,100,0.10,,---,0.10,VWS V14.00,2013-09-03 09:19:00,
2013-09-03 05:24:00,65.6,65.6,29.93,West,270,0.0,0.0,100,0.10,,---,0.10,VWS V14.00,2013-09-03 09:24:00,
2013-09-03 05:29:00,65.4,65.4,29.93,West,270,0.0,0.0,100,0.10,,---,0.10,VWS V14.00,2013-09-03 09:29:00,
2013-09-03 05:34:00,65.4,65.4,29.93,West,270,0.0,0.0,100,0.10,,---,0.10,VWS V14.00,2013-09-03 09:34:00,
2013-09-03 05:39:00,65.1,65.1,29.94,West,270,0.0,0.0,100,0.10,,---,0.10,VWS V14.00,2013-09-03 09:39:00,
2013-09-03 05:45:00,64.9,64.9,29.94,West,270,0.0,0.0,100,0.10,,---,0.10,VWS V14.00,2013-09-03 09:45:00,
2013-09-03 05:50:00,64.5,64.5,29.94,West,270,0.0,0.0,100,0.10,,---,0.10,VWS V14.00,2013-09-03 09:50:00,
2013-09-03 05:55:00,64.2,64.2,29.94,West,270,0.0,0.0,100,0.10,,---,0.10,VWS V14.00,2013-09-03 09:55:00,
2013-09-03 06:00:00,64.0,64.0,29.94,West,270,0.0,0.0,100,0.10,,---,0.10,VWS V14.00,2013-09-03 10:00:00,
2013-09-03 06:05:00,63.6,63.6,29.94,West,270,0.0,0.0,100,0.10,,---,0.10,VWS V14.00,2013-09-03 10:05:00,
2013-09-03 06:10:00,63.5,63.5,29.94,West,270,0.0,0.0,100,0.10,,---,0.10,VWS V14.00,2013-09-03 10:10:00,
2013-09-03 06:15:00,63.3,63.3,29.94,West,270,0.0,0.0,100,0.04,,---,0.10,VWS V14.00,2013-09-03 10:15:00,
2013-09-03 06:20:00,63.1,63.1,29.96,West,270,0.0,0.0,100,0.04,,---,0.10,VWS V14.00,2013-09-03 10:20:00,
2013-09-03 06:25:00,62.9,62.9,29.97,West,270,0.0,0.0,100,0.00,,---,0.10,VWS V14.00,2013-09-03 10:25:00,
2013-09-03 06:30:00,62.7,62.7,29.97,West,270,0.0,0.0,100,0.00,,---,0.10,VWS V14.00,2013-09-03 10:30:00,
2013-09-03 06:35:00,62.7,62.7,29.98,West,270,0.0,0.0,100,0.00,,---,0.10,VWS V14.00,2013-09-03 10:35:00,
2013-09-03 06:40:00,62.6,62.6,29.98,West,270,0.0,0.0,100,0.00,,---,0.10,VWS V14.00,2013-09-03 10:40:00,
2013-09-03 06:45:00,62.4,62.4,29.97,West,270,0.0,0.0,100,0.00,,---,0.10,VWS V14.00,2013-09-03 10:45:00,
2013-09-03 06:50:00,62.4,62.4,29.97,West,270,0.0,0.0,100,0.00,,---,0.10,VWS V14.00,2013-09-03 10:50:00,
2013-09-03 06:55:00,62.4,62.4,29.97,West,270,0.0,0.0,100,0.00,,---,0.10,VWS V14.00,2013-09-03 10:55:00,
2013-09-03 07:00:00,62.4,62.4,29.97,West,270,0.0,0.0,100,0.00,,---,0.10,VWS V14.00,2013-09-03 11:00:00,
2013-09-03 07:05:00,62.4,62.4,29.96,West,270,0.0,0.0,100,0.00,,---,0.10,VWS V14.00,2013-09-03 11:05:00,
2013-09-03 07:10:00,62.4,62.4,29.95,West,270,0.0,0.0,100,0.00,,---,0.10,VWS V14.00,2013-09-03 11:10:00,
2013-09-03 07:15:00,62.6,62.6,29.95,West,270,0.0,0.0,100,0.00,,---,0.10,VWS V14.00,2013-09-03 11:15:00,
2013-09-03 07:20:00,62.6,62.6,29.95,West,270,0.0,0.0,100,0.00,,---,0.10,VWS V14.00,2013-09-03 11:20:00,
2013-09-03 07:25:00,62.6,62.6,29.94,West,270,0.0,0.0,100,0.02,,---,0.12,VWS V14.00,2013-09-03 11:25:00,
2013-09-03 07:30:00,62.6,62.6,29.94,West,270,0.0,0.0,100,0.02,,---,0.12,VWS V14.00,2013-09-03 11:30:00,
2013-09-03 07:35:00,62.6,62.6,29.93,West,270,0.0,0.0,100,0.02,,---,0.12,VWS V14.00,2013-09-03 11:35:00,
2013-09-03 07:40:00,62.4,62.4,29.94,West,270,0.0,0.0,100,0.04,,---,0.14,VWS V14.00,2013-09-03 11:40:00,
2013-09-03 07:45:00,62.6,62.6,29.92,West,270,0.0,0.0,100,0.04,,---,0.14,VWS V14.00,2013-09-03 11:45:00,
2013-09-03 07:50:00,62.4,62.4,29.91,West,270,0.0,0.0,100,0.04,,---,0.14,VWS V14.00,2013-09-03 11:50:00,
2013-09-03 07:55:00,62.4,62.4,29.91,West,270,0.0,0.0,100,0.06,,---,0.16,VWS V14.00,2013-09-03 11:55:00,
2013-09-03 08:00:00,62.4,62.4,29.89,WSW,248,0.0,0.0,100,0.06,,---,0.16,VWS V14.00,2013-09-03 12:00:00,
2013-09-03 08:05:00,62.4,62.4,29.90,WSW,248,0.0,0.0,100,0.08,,---,0.19,VWS V14.00,2013-09-03 12:05:00,
2013-09-03 08:10:00,62.4,62.4,29.90,WSW,248,0.0,0.0,100,0.08,,---,0.19,VWS V14.00,2013-09-03 12:10:00,
2013-09-03 08:16:00,62.4,62.4,29.93,East,90,0.0,0.0,100,0.08,,---,0.19,VWS V14.00,2013-09-03 12:16:00,
2013-09-03 08:21:00,62.4,62.4,29.92,SE,135,0.0,0.0,100,0.06,,---,0.19,VWS V14.00,2013-09-03 12:21:00,
2013-09-03 08:26:00,62.4,62.4,29.93,SE,135,0.0,0.0,100,0.06,,---,0.19,VWS V14.00,2013-09-03 12:26:00,
2013-09-03 08:31:00,62.4,62.4,29.93,SE,135,0.0,0.0,100,0.06,,---,0.19,VWS V14.00,2013-09-03 12:31:00,
2013-09-03 08:36:00,62.4,62.4,29.94,SE,135,0.0,0.0,100,0.06,,---,0.19,VWS V14.00,2013-09-03 12:36:00,
2013-09-03 08:41:00,62.4,62.4,29.94,SE,135,0.0,0.0,100,0.04,,---,0.19,VWS V14.00,2013-09-03 12:41:00,
2013-09-03 08:46:00,62.4,62.4,29.94,SE,135,0.0,0.0,100,0.04,,---,0.19,VWS V14.00,2013-09-03 12:46:00,
2013-09-03 08:51:00,62.7,62.7,29.94,SE,135,0.0,0.0,100,0.04,,---,0.19,VWS V14.00,2013-09-03 12:51:00,
2013-09-03 08:56:00,62.9,62.9,29.94,WSW,248,0.0,0.0,100,0.04,,---,0.19,VWS V14.00,2013-09-03 12:56:00,
2013-09-03 09:01:00,63.5,63.5,29.94,WSW,248,0.0,0.0,100,0.02,,---,0.19,VWS V14.00,2013-09-03 13:01:00,
2013-09-03 09:06:00,63.6,63.6,29.95,WSW,248,0.0,0.0,100,0.02,,---,0.19,VWS V14.00,2013-09-03 13:06:00,
2013-09-03 09:11:00,64.2,64.2,29.95,WSW,248,0.0,0.0,100,0.00,,---,0.19,VWS V14.00,2013-09-03 13:11:00,
2013-09-03 09:16:00,64.9,64.9,29.95,WSW,248,0.0,0.0,100,0.00,,---,0.19,VWS V14.00,2013-09-03 13:16:00,
2013-09-03 09:21:00,65.1,65.1,29.95,WSW,248,0.0,0.0,100,0.00,,---,0.19,VWS V14.00,2013-09-03 13:21:00,
2013-09-03 09:26:00,65.4,65.4,29.95,WSW,248,0.0,0.0,100,0.00,,---,0.19,VWS V14.00,2013-09-03 13:26:00,
2013-09-03 09:31:00,66.0,66.0,29.95,WSW,248,0.0,0.0,100,0.00,,---,0.19,VWS V14.00,2013-09-03 13:31:00,
2013-09-03 09:36:00,66.2,66.2,29.95,WSW,248,0.0,0.0,100,0.00,,---,0.19,VWS V14.00,2013-09-03 13:36:00,
2013-09-03 09:41:00,66.5,66.5,29.95,WSW,248,0.0,0.0,100,0.00,,---,0.19,VWS V14.00,2013-09-03 13:41:00,
2013-09-03 09:46:00,66.9,66.9,29.95,WSW,248,0.0,0.0,100,0.00,,---,0.19,VWS V14.00,2013-09-03 13:46:00,
2013-09-03 09:51:00,67.2,67.2,29.95,WSW,248,0.0,0.0,100,0.00,,---,0.19,VWS V14.00,2013-09-03 13:51:00,
2013-09-03 09:56:00,67.6,67.6,29.95,WSW,248,0.0,0.0,100,0.00,,---,0.19,VWS V14.00,2013-09-03 13:56:00,
2013-09-03 10:01:00,68.1,68.1,29.95,WSW,248,0.0,0.0,100,0.00,,---,0.19,VWS V14.00,2013-09-03 14:01:00,
2013-09-03 10:06:00,68.7,68.7,29.95,WSW,248,0.0,0.0,100,0.00,,---,0.19,VWS V14.00,2013-09-03 14:06:00,
2013-09-03 10:11:00,69.4,69.4,29.95,WSW,248,0.0,0.0,100,0.00,,---,0.19,VWS V14.00,2013-09-03 14:11:00,
2013-09-03 10:16:00,70.1,69.8,29.95,WSW,248,0.0,0.0,99,0.00,,---,0.19,VWS V14.00,2013-09-03 14:16:00,
2013-09-03 10:21:00,70.3,70.0,29.95,WSW,248,0.0,0.0,99,0.00,,---,0.19,VWS V14.00,2013-09-03 14:21:00,
2013-09-03 10:26:00,70.5,69.9,29.95,WSW,248,0.0,0.0,98,0.00,,---,0.19,VWS V14.00,2013-09-03 14:26:00,
2013-09-03 10:31:00,70.3,69.7,29.95,WSW,248,0.0,0.0,98,0.00,,---,0.19,VWS V14.00,2013-09-03 14:31:00,
2013-09-03 10:36:00,70.7,69.8,29.96,WSW,248,0.0,0.0,97,0.00,,---,0.19,VWS V14.00,2013-09-03 14:36:00,
2013-09-03 10:41:00,70.7,69.5,29.96,WSW,248,0.0,0.0,96,0.00,,---,0.19,VWS V14.00,2013-09-03 14:41:00,
2013-09-03 10:46:00,70.8,69.6,29.97,WSW,248,0.0,0.0,96,0.00,,---,0.19,VWS V14.00,2013-09-03 14:46:00,
2013-09-03 10:51:00,71.4,69.9,29.97,West,270,0.0,0.0,95,0.00,,---,0.19,VWS V14.00,2013-09-03 14:51:00,
2013-09-03 10:56:00,72.3,70.8,29.97,West,270,0.0,0.0,95,0.00,,---,0.19,VWS V14.00,2013-09-03 14:56:00,
2013-09-03 11:01:00,73.2,71.1,29.97,ENE,68,0.0,0.0,93,0.00,,---,0.19,VWS V14.00,2013-09-03 15:01:00,
2013-09-03 11:06:00,73.7,71.2,29.97,East,90,0.0,0.0,92,0.00,,---,0.19,VWS V14.00,2013-09-03 15:06:00,
2013-09-03 11:11:00,74.3,71.5,29.97,NW,315,0.0,0.0,91,0.00,,---,0.19,VWS V14.00,2013-09-03 15:11:00,
2013-09-03 11:16:00,75.0,71.9,29.98,East,90,0.0,0.0,90,0.00,,---,0.19,VWS V14.00,2013-09-03 15:16:00,
2013-09-03 11:21:00,75.3,71.8,29.97,NE,45,0.0,0.0,89,0.00,,---,0.19,VWS V14.00,2013-09-03 15:21:00,
2013-09-03 11:26:00,75.9,72.4,29.98,West,270,0.0,0.0,89,0.00,,---,0.19,VWS V14.00,2013-09-03 15:26:00,
2013-09-03 11:31:00,76.2,72.4,29.97,West,270,0.0,0.0,88,0.00,,---,0.19,VWS V14.00,2013-09-03 15:31:00,
2013-09-03 11:37:00,76.8,72.6,29.98,West,270,0.0,0.0,87,0.00,,---,0.19,VWS V14.00,2013-09-03 15:37:00,
2013-09-03 11:42:00,77.1,72.2,29.97,WSW,248,0.0,0.0,85,0.00,,---,0.19,VWS V14.00,2013-09-03 15:42:00,
2013-09-03 11:47:00,77.5,73.0,29.97,West,270,0.0,0.0,86,0.00,,---,0.19,VWS V14.00,2013-09-03 15:47:00,
2013-09-03 11:52:00,77.7,72.8,29.98,West,270,0.0,0.0,85,0.00,,---,0.19,VWS V14.00,2013-09-03 15:52:00,
2013-09-03 11:57:00,78.4,73.5,29.97,ENE,68,0.0,0.0,85,0.00,,---,0.19,VWS V14.00,2013-09-03 15:57:00,
2013-09-03 12:02:00,78.6,73.4,29.98,East,90,0.0,0.0,84,0.00,,---,0.19,VWS V14.00,2013-09-03 16:02:00,
2013-09-03 12:07:00,78.6,73.0,29.98,ESE,112,0.0,0.0,83,0.00,,---,0.19,VWS V14.00,2013-09-03 16:07:00,
2013-09-03 12:12:00,79.1,73.8,29.98,NNE,22,0.0,0.0,84,0.00,,---,0.19,VWS V14.00,2013-09-03 16:12:00,
2013-09-03 12:17:00,79.5,73.9,29.98,ENE,68,0.0,0.0,83,0.00,,---,0.19,VWS V14.00,2013-09-03 16:17:00,
2013-09-03 12:22:00,79.5,73.9,29.98,WSW,248,0.0,0.0,83,0.00,,---,0.19,VWS V14.00,2013-09-03 16:22:00,
2013-09-03 12:27:00,79.5,73.9,29.98,ENE,68,0.0,0.0,83,0.00,,---,0.19,VWS V14.00,2013-09-03 16:27:00,
2013-09-03 12:32:00,79.7,73.7,29.98,WNW,292,0.0,0.0,82,0.00,,---,0.19,VWS V14.00,2013-09-03 16:32:00,
2013-09-03 12:37:00,80.0,74.0,29.98,ENE,68,0.0,0.0,82,0.00,,---,0.19,VWS V14.00,2013-09-03 16:37:00,
2013-09-03 12:42:00,80.4,74.4,29.98,West,270,0.0,0.0,82,0.00,,---,0.19,VWS V14.00,2013-09-03 16:42:00,
2013-09-03 12:47:00,80.7,74.7,29.98,WNW,292,0.0,0.0,82,0.00,,---,0.19,VWS V14.00,2013-09-03 16:47:00,
2013-09-03 12:52:00,81.1,74.7,29.98,West,270,0.0,0.0,81,0.00,,---,0.19,VWS V14.00,2013-09-03 16:52:00,
2013-09-03 12:57:00,81.3,74.5,29.98,NNW,338,0.0,0.0,80,0.00,,---,0.19,VWS V14.00,2013-09-03 16:57:00,
2013-09-03 13:02:00,81.3,74.5,29.97,NNW,338,0.0,0.0,80,0.00,,---,0.19,VWS V14.00,2013-09-03 17:02:00,
2013-09-03 13:07:00,81.5,74.7,29.97,WNW,292,0.0,0.0,80,0.00,,---,0.19,VWS V14.00,2013-09-03 17:07:00,
2013-09-03 13:12:00,81.5,74.7,29.97,West,270,0.0,0.0,80,0.00,,---,0.19,VWS V14.00,2013-09-03 17:12:00,
2013-09-03 13:17:00,81.6,74.8,29.97,WNW,292,0.0,0.0,80,0.00,,---,0.19,VWS V14.00,2013-09-03 17:17:00,
2013-09-03 13:22:00,82.0,74.8,29.97,WNW,292,0.0,0.0,79,0.00,,---,0.19,VWS V14.00,2013-09-03 17:22:00,
2013-09-03 13:27:00,82.2,75.0,29.97,East,90,0.0,0.0,79,0.00,,---,0.19,VWS V14.00,2013-09-03 17:27:00,
2013-09-03 13:32:00,82.2,75.0,29.97,ENE,68,0.0,0.0,79,0.00,,---,0.19,VWS V14.00,2013-09-03 17:32:00,
2013-09-03 13:37:00,82.2,75.0,29.97,SW,225,0.0,0.0,79,0.00,,---,0.19,VWS V14.00,2013-09-03 17:37:00,
2013-09-03 13:42:00,82.4,74.9,29.97,WSW,248,0.0,0.0,78,0.00,,---,0.19,VWS V14.00,2013-09-03 17:42:00,
2013-09-03 13:47:00,82.5,74.6,29.97,West,270,0.0,0.0,77,0.00,,---,0.19,VWS V14.00,2013-09-03 17:47:00,
2013-09-03 13:52:00,82.5,74.6,29.97,ENE,68,0.0,0.0,77,0.00,,---,0.19,VWS V14.00,2013-09-03 17:52:00,
2013-09-03 13:57:00,82.9,74.9,29.97,ENE,68,0.0,0.0,77,0.00,,---,0.19,VWS V14.00,2013-09-03 17:57:00,
2013-09-03 14:02:00,82.9,74.9,29.96,WNW,292,0.0,0.0,77,0.00,,---,0.19,VWS V14.00,2013-09-03 18:02:00,
2013-09-03 14:07:00,83.1,74.4,29.97,NE,45,0.0,0.0,75,0.00,,---,0.19,VWS V14.00,2013-09-03 18:07:00,
2013-09-03 14:12:00,82.9,73.8,29.97,ENE,68,0.0,0.0,74,0.00,,---,0.19,VWS V14.00,2013-09-03 18:12:00,
2013-09-03 14:17:00,82.7,73.6,29.96,East,90,0.0,0.0,74,0.00,,---,0.19,VWS V14.00,2013-09-03 18:17:00,
2013-09-03 14:22:00,82.7,73.6,29.96,ENE,68,0.0,0.0,74,0.00,,---,0.19,VWS V14.00,2013-09-03 18:22:00,
2013-09-03 14:27:00,82.9,73.8,29.97,WNW,292,0.0,0.0,74,0.00,,---,0.19,VWS V14.00,2013-09-03 18:27:00,
2013-09-03 14:32:00,82.9,74.2,29.97,NW,315,0.0,0.0,75,0.00,,---,0.19,VWS V14.00,2013-09-03 18:32:00,
2013-09-03 14:37:00,82.9,72.9,29.96,West,270,0.0,0.0,72,0.00,,---,0.19,VWS V14.00,2013-09-03 18:37:00,
2013-09-03 14:42:00,82.7,72.8,29.96,NW,315,0.0,0.0,72,0.00,,---,0.19,VWS V14.00,2013-09-03 18:42:00,
2013-09-03 14:47:00,82.5,73.0,29.96,NNW,338,0.0,0.0,73,0.00,,---,0.19,VWS V14.00,2013-09-03 18:47:00,
2013-09-03 14:52:00,82.2,72.7,29.96,West,270,0.0,0.0,73,0.00,,---,0.19,VWS V14.00,2013-09-03 18:52:00,
2013-09-03 14:57:00,82.0,72.5,29.96,West,270,0.0,0.0,73,0.00,,---,0.19,VWS V14.00,2013-09-03 18:57:00,
2013-09-03 15:02:00,81.8,72.7,29.96,WSW,248,0.0,0.0,74,0.00,,---,0.19,VWS V14.00,2013-09-03 19:02:00,
2013-09-03 15:07:00,81.6,72.5,29.95,West,270,0.0,0.0,74,0.00,,---,0.19,VWS V14.00,2013-09-03 19:07:00,
2013-09-03 15:12:00,81.5,72.4,29.95,NW,315,0.0,0.0,74,0.00,,---,0.19,VWS V14.00,2013-09-03 19:12:00,
2013-09-03 15:17:00,81.3,71.8,29.95,North,0,0.0,0.0,73,0.00,,---,0.19,VWS V14.00,2013-09-03 19:17:00,
2013-09-03 15:22:00,80.9,72.2,29.95,NNE,22,0.0,0.0,75,0.00,,---,0.19,VWS V14.00,2013-09-03 19:22:00,
2013-09-03 15:27:00,80.7,71.7,29.95,NE,45,0.0,0.0,74,0.00,,---,0.19,VWS V14.00,2013-09-03 19:27:00,
2013-09-03 15:32:00,80.7,72.0,29.95,NNE,22,0.0,0.0,75,0.00,,---,0.19,VWS V14.00,2013-09-03 19:32:00,
2013-09-03 15:37:00,80.7,72.0,29.95,ENE,68,0.0,0.0,75,0.00,,---,0.19,VWS V14.00,2013-09-03 19:37:00,
2013-09-03 15:42:00,80.4,71.4,29.94,North,0,0.0,0.0,74,0.00,,---,0.19,VWS V14.00,2013-09-03 19:42:00,
2013-09-03 15:47:00,80.2,70.8,29.94,West,270,0.0,0.0,73,0.00,,---,0.19,VWS V14.00,2013-09-03 19:47:00,
2013-09-03 15:52:00,80.2,71.6,29.94,WNW,292,0.0,0.0,75,0.00,,---,0.19,VWS V14.00,2013-09-03 19:52:00,
2013-09-03 15:58:00,80.0,71.4,29.94,NE,45,0.0,0.0,75,0.00,,---,0.19,VWS V14.00,2013-09-03 19:58:00,
2013-09-03 16:03:00,80.0,71.8,29.94,West,270,0.0,0.0,76,0.00,,---,0.19,VWS V14.00,2013-09-03 20:03:00,
2013-09-03 16:08:00,80.0,71.4,29.94,NNE,22,0.0,0.0,75,0.00,,---,0.19,VWS V14.00,2013-09-03 20:08:00,
2013-09-03 16:13:00,79.8,70.8,29.94,ENE,68,0.0,0.0,74,0.00,,---,0.19,VWS V14.00,2013-09-03 20:13:00,
2013-09-03 16:18:00,79.8,71.6,29.94,West,270,0.0,0.0,76,0.00,,---,0.19,VWS V14.00,2013-09-03 20:18:00,
2013-09-03 16:23:00,79.7,71.5,29.94,WSW,248,0.0,0.0,76,0.00,,---,0.19,VWS V14.00,2013-09-03 20:23:00,
2013-09-03 16:28:00,79.5,71.3,29.94,NE,45,0.0,0.0,76,0.00,,---,0.19,VWS V14.00,2013-09-03 20:28:00,
2013-09-03 16:33:00,79.3,70.7,29.93,WNW,292,0.0,0.0,75,0.00,,---,0.19,VWS V14.00,2013-09-03 20:33:00,
2013-09-03 16:38:00,79.5,71.3,29.93,WSW,248,0.0,0.0,76,0.00,,---,0.19,VWS V14.00,2013-09-03 20:38:00,
2013-09-03 16:43:00,79.3,70.7,29.93,WNW,292,0.0,0.0,75,0.00,,---,0.19,VWS V14.00,2013-09-03 20:43:00,
2013-09-03 16:48:00,79.3,71.5,29.93,West,270,0.0,0.0,77,0.00,,---,0.19,VWS V14.00,2013-09-03 20:48:00,
2013-09-03 16:53:00,79.1,70.9,29.92,WNW,292,0.0,0.0,76,0.00,,---,0.19,VWS V14.00,2013-09-03 20:53:00,
2013-09-03 16:58:00,79.1,70.9,29.93,ENE,68,0.0,0.0,76,0.00,,---,0.19,VWS V14.00,2013-09-03 20:58:00,
2013-09-03 17:03:00,79.1,70.9,29.93,West,270,0.0,0.0,76,0.00,,---,0.19,VWS V14.00,2013-09-03 21:03:00,
2013-09-03 17:08:00,78.9,71.1,29.93,NW,315,0.0,0.0,77,0.00,,---,0.19,VWS V14.00,2013-09-03 21:08:00,
2013-09-03 17:13:00,78.9,71.1,29.93,WNW,292,0.0,0.0,77,0.00,,---,0.19,VWS V14.00,2013-09-03 21:13:00,
2013-09-03 17:18:00,78.9,70.7,29.94,WNW,292,0.0,0.0,76,0.00,,---,0.19,VWS V14.00,2013-09-03 21:18:00,
2013-09-03 17:23:00,78.9,71.1,29.94,WSW,248,0.0,0.0,77,0.00,,---,0.19,VWS V14.00,2013-09-03 21:23:00,
2013-09-03 17:28:00,78.6,70.8,29.93,West,270,0.0,0.0,77,0.00,,---,0.19,VWS V14.00,2013-09-03 21:28:00,
2013-09-03 17:33:00,78.6,70.8,29.94,NE,45,0.0,0.0,77,0.00,,---,0.19,VWS V14.00,2013-09-03 21:33:00,
2013-09-03 17:38:00,78.6,70.4,29.93,ENE,68,0.0,0.0,76,0.00,,---,0.19,VWS V14.00,2013-09-03 21:38:00,
2013-09-03 17:43:00,78.4,70.2,29.94,ESE,112,0.0,0.0,76,0.00,,---,0.19,VWS V14.00,2013-09-03 21:43:00,
2013-09-03 17:48:00,78.2,70.4,29.94,ENE,68,0.0,0.0,77,0.00,,---,0.19,VWS V14.00,2013-09-03 21:48:00,
2013-09-03 17:53:00,78.0,70.2,29.94,NW,315,0.0,0.0,77,0.00,,---,0.19,VWS V14.00,2013-09-03 21:53:00,
2013-09-03 17:58:00,77.9,70.1,29.94,West,270,0.0,0.0,77,0.00,,---,0.19,VWS V14.00,2013-09-03 21:58:00,
2013-09-03 18:03:00,77.7,70.3,29.94,WNW,292,0.0,0.0,78,0.00,,---,0.19,VWS V14.00,2013-09-03 22:03:00,
2013-09-03 18:08:00,77.5,69.7,29.93,NE,45,0.0,0.0,77,0.00,,---,0.19,VWS V14.00,2013-09-03 22:08:00,
2013-09-03 18:13:00,77.1,69.3,29.94,ENE,68,0.0,0.0,77,0.00,,---,0.19,VWS V14.00,2013-09-03 22:13:00,
2013-09-03 18:18:00,77.0,69.6,29.94,ENE,68,0.0,0.0,78,0.00,,---,0.19,VWS V14.00,2013-09-03 22:18:00,
2013-09-03 18:23:00,76.8,69.8,29.95,ENE,68,0.0,0.0,79,0.00,,---,0.19,VWS V14.00,2013-09-03 22:23:00,
2013-09-03 18:28:00,76.8,70.2,29.95,ENE,68,0.0,0.0,80,0.00,,---,0.19,VWS V14.00,2013-09-03 22:28:00,
2013-09-03 18:33:00,76.4,69.4,29.95,ESE,112,0.0,0.0,79,0.00,,---,0.19,VWS V14.00,2013-09-03 22:33:00,
2013-09-03 18:38:00,76.1,69.5,29.94,ESE,112,0.0,0.0,80,0.00,,---,0.19,VWS V14.00,2013-09-03 22:38:00,
2013-09-03 18:43:00,75.9,69.3,29.95,ENE,68,0.0,0.0,80,0.00,,---,0.19,VWS V14.00,2013-09-03 22:43:00,
2013-09-03 18:48:00,75.7,69.1,29.95,ENE,68,0.0,0.0,80,0.00,,---,0.19,VWS V14.00,2013-09-03 22:48:00,
2013-09-03 18:53:00,75.5,69.3,29.95,ENE,68,0.0,0.0,81,0.00,,---,0.19,VWS V14.00,2013-09-03 22:53:00,
2013-09-03 18:58:00,75.2,69.3,29.94,East,90,0.0,0.0,82,0.00,,---,0.19,VWS V14.00,2013-09-03 22:58:00,
2013-09-03 19:03:00,75.0,69.1,29.95,East,90,0.0,0.0,82,0.00,,---,0.19,VWS V14.00,2013-09-03 23:03:00,
2013-09-03 19:08:00,74.8,69.3,29.95,East,90,0.0,0.0,83,0.00,,---,0.19,VWS V14.00,2013-09-03 23:08:00,
2013-09-03 19:13:00,74.1,69.0,29.95,East,90,0.0,0.0,84,0.00,,---,0.19,VWS V14.00,2013-09-03 23:13:00,
2013-09-03 19:18:00,73.7,68.9,29.95,East,90,0.0,0.0,85,0.00,,---,0.19,VWS V14.00,2013-09-03 23:18:00,
2013-09-03 19:23:00,73.2,68.8,29.95,East,90,0.0,0.0,86,0.00,,---,0.19,VWS V14.00,2013-09-03 23:23:00,
2013-09-03 19:28:00,73.0,68.9,29.95,East,90,0.0,0.0,87,0.00,,---,0.19,VWS V14.00,2013-09-03 23:28:00,
2013-09-03 19:33:00,72.5,68.4,29.95,East,90,0.0,0.0,87,0.00,,---,0.19,VWS V14.00,2013-09-03 23:33:00,
2013-09-03 19:38:00,71.9,68.2,29.96,East,90,0.0,0.0,88,0.00,,---,0.19,VWS V14.00,2013-09-03 23:38:00,
2013-09-03 19:43:00,71.7,68.0,29.96,East,90,0.0,0.0,88,0.00,,---,0.19,VWS V14.00,2013-09-03 23:43:00,
2013-09-03 19:48:00,71.4,68.0,29.96,East,90,0.0,0.0,89,0.00,,---,0.19,VWS V14.00,2013-09-03 23:48:00,
2013-09-03 19:53:00,70.8,67.4,29.96,East,90,0.0,0.0,89,0.00,,---,0.19,VWS V14.00,2013-09-03 23:53:00,
2013-09-03 19:59:00,70.5,67.1,29.96,East,90,0.0,0.0,89,0.00,,---,0.19,VWS V14.00,2013-09-03 23:59:00,
2013-09-03 20:04:00,70.3,67.2,29.96,East,90,0.0,0.0,90,0.00,,---,0.19,VWS V14.00,2013-09-04 00:04:00,
2013-09-03 20:09:00,69.8,66.7,29.97,East,90,0.0,0.0,90,0.00,,---,0.19,VWS V14.00,2013-09-04 00:09:00,
2013-09-03 20:14:00,69.4,66.7,29.97,East,90,0.0,0.0,91,0.00,,---,0.19,VWS V14.00,2013-09-04 00:14:00,
2013-09-03 20:19:00,69.2,66.5,29.97,East,90,0.0,0.0,91,0.00,,---,0.19,VWS V14.00,2013-09-04 00:19:00,
2013-09-03 20:24:00,68.7,66.3,29.98,East,90,0.0,0.0,92,0.00,,---,0.19,VWS V14.00,2013-09-04 00:24:00,
2013-09-03 20:29:00,68.5,66.1,29.98,East,90,0.0,0.0,92,0.00,,---,0.19,VWS V14.00,2013-09-04 00:29:00,
2013-09-03 20:34:00,68.3,65.9,29.98,East,90,0.0,0.0,92,0.00,,---,0.19,VWS V14.00,2013-09-04 00:34:00,
2013-09-03 20:39:00,68.1,66.0,29.99,East,90,0.0,0.0,93,0.00,,---,0.19,VWS V14.00,2013-09-04 00:39:00,
2013-09-03 20:44:00,67.8,66.0,29.99,East,90,0.0,0.0,94,0.00,,---,0.19,VWS V14.00,2013-09-04 00:44:00,
2013-09-03 20:49:00,67.6,65.8,29.99,East,90,0.0,0.0,94,0.00,,---,0.19,VWS V14.00,2013-09-04 00:49:00,
2013-09-03 20:54:00,67.2,65.4,29.99,East,90,0.0,0.0,94,0.00,,---,0.19,VWS V14.00,2013-09-04 00:54:00,
2013-09-03 20:59:00,67.1,65.3,30.00,East,90,0.0,0.0,94,0.00,,---,0.19,VWS V14.00,2013-09-04 00:59:00,
2013-09-03 21:04:00,66.9,65.1,30.00,East,90,0.0,0.0,94,0.00,,---,0.19,VWS V14.00,2013-09-04 01:04:00,
2013-09-03 21:09:00,66.7,65.2,30.01,East,90,0.0,0.0,95,0.00,,---,0.19,VWS V14.00,2013-09-04 01:09:00,
2013-09-03 21:14:00,66.7,65.2,30.01,East,90,0.0,0.0,95,0.00,,---,0.19,VWS V14.00,2013-09-04 01:14:00,
2013-09-03 21:19:00,66.5,65.0,30.01,East,90,0.0,0.0,95,0.00,,---,0.19,VWS V14.00,2013-09-04 01:19:00,
2013-09-03 21:24:00,66.3,64.8,30.02,East,90,0.0,0.0,95,0.00,,---,0.19,VWS V14.00,2013-09-04 01:24:00,
2013-09-03 21:29:00,66.2,65.0,30.02,East,90,0.0,0.0,96,0.00,,---,0.19,VWS V14.00,2013-09-04 01:29:00,
2013-09-03 21:34:00,66.0,64.8,30.02,East,90,0.0,0.0,96,0.00,,---,0.19,VWS V14.00,2013-09-04 01:34:00,
2013-09-03 21:39:00,66.0,64.8,30.02,East,90,0.0,0.0,96,0.00,,---,0.19,VWS V14.00,2013-09-04 01:39:00,
2013-09-03 21:44:00,65.8,64.6,30.02,East,90,0.0,0.0,96,0.00,,---,0.19,VWS V14.00,2013-09-04 01:44:00,
2013-09-03 21:49:00,65.8,64.6,30.02,East,90,0.0,0.0,96,0.00,,---,0.19,VWS V14.00,2013-09-04 01:49:00,
2013-09-03 21:54:00,65.4,64.5,30.02,East,90,0.0,0.0,97,0.00,,---,0.19,VWS V14.00,2013-09-04 01:54:00,
2013-09-03 21:59:00,65.4,64.2,30.02,East,90,0.0,0.0,96,0.00,,---,0.19,VWS V14.00,2013-09-04 01:59:00,
2013-09-03 22:04:00,65.3,64.4,30.02,East,90,0.0,0.0,97,0.00,,---,0.19,VWS V14.00,2013-09-04 02:04:00,
2013-09-03 22:09:00,65.3,64.4,30.02,East,90,0.0,0.0,97,0.00,,---,0.19,VWS V14.00,2013-09-04 02:09:00,
2013-09-03 22:14:00,65.1,64.5,30.02,East,90,0.0,0.0,98,0.00,,---,0.19,VWS V14.00,2013-09-04 02:14:00,
2013-09-03 22:19:00,65.1,64.5,30.02,East,90,0.0,0.0,98,0.00,,---,0.19,VWS V14.00,2013-09-04 02:19:00,
2013-09-03 22:24:00,65.1,64.5,30.03,East,90,0.0,0.0,98,0.00,,---,0.19,VWS V14.00,2013-09-04 02:24:00,
2013-09-03 22:29:00,64.9,64.3,30.03,East,90,0.0,0.0,98,0.00,,---,0.19,VWS V14.00,2013-09-04 02:29:00,
2013-09-03 22:34:00,64.7,64.1,30.03,East,90,0.0,0.0,98,0.00,,---,0.19,VWS V14.00,2013-09-04 02:34:00,
2013-09-03 22:39:00,64.7,64.1,30.03,East,90,0.0,0.0,98,0.00,,---,0.19,VWS V14.00,2013-09-04 02:39:00,
2013-09-03 22:44:00,64.5,63.9,30.03,East,90,0.0,0.0,98,0.00,,---,0.19,VWS V14.00,2013-09-04 02:44:00,
2013-09-03 22:49:00,64.5,64.2,30.03,East,90,0.0,0.0,99,0.00,,---,0.19,VWS V14.00,2013-09-04 02:49:00,
2013-09-03 22:54:00,64.2,63.9,30.03,East,90,0.0,0.0,99,0.00,,---,0.19,VWS V14.00,2013-09-04 02:54:00,
2013-09-03 22:59:00,64.2,63.9,30.03,East,90,0.0,0.0,99,0.00,,---,0.19,VWS V14.00,2013-09-04 02:59:00,
2013-09-03 23:04:00,64.2,63.9,30.03,East,90,0.0,0.0,99,0.00,,---,0.19,VWS V14.00,2013-09-04 03:04:00,
2013-09-03 23:09:00,64.2,63.9,30.03,East,90,0.0,0.0,99,0.00,,---,0.19,VWS V14.00,2013-09-04 03:09:00,
2013-09-03 23:14:00,64.2,63.9,30.03,East,90,0.0,0.0,99,0.00,,---,0.19,VWS V14.00,2013-09-04 03:14:00,
2013-09-03 23:19:00,64.0,63.7,30.04,East,90,0.0,0.0,99,0.00,,---,0.19,VWS V14.00,2013-09-04 03:19:00,
2013-09-03 23:24:00,64.0,63.7,30.03,East,90,0.0,0.0,99,0.00,,---,0.19,VWS V14.00,2013-09-04 03:24:00,
2013-09-03 23:29:00,63.6,63.3,30.03,East,90,0.0,0.0,99,0.00,,---,0.19,VWS V14.00,2013-09-04 03:29:00,
2013-09-03 23:34:00,63.6,63.3,30.03,East,90,0.0,0.0,99,0.00,,---,0.19,VWS V14.00,2013-09-04 03:34:00,
2013-09-03 23:39:00,63.6,63.3,30.03,East,90,0.0,0.0,99,0.00,,---,0.19,VWS V14.00,2013-09-04 03:39:00,
2013-09-03 23:45:00,63.6,63.3,30.04,East,90,0.0,0.0,99,0.00,,---,0.19,VWS V14.00,2013-09-04 03:45:00,
2013-09-03 23:50:00,63.5,63.2,30.04,East,90,0.0,0.0,99,0.00,,---,0.19,VWS V14.00,2013-09-04 03:50:00,
2013-09-03 23:55:00,63.5,63.2,30.04,East,90,0.0,0.0,99,0.00,,---,0.19,VWS V14.00,2013-09-04 03:55:00,